sensor_id;sensor_type;location;lat;lon;timestamp;P1;durP1;ratioP1;P2;durP2;ratioP2
2772;SDS011;1394;47.044;15.744;2023-03-11T00:01:05;24.53;;;1.77;;
2772;SDS011;1394;47.044;15.744;2023-03-11T00:03:32;24.60;;;1.80;;
2772;SDS011;1394;47.044;15.744;2023-03-11T00:06:02;25.03;;;2.00;;
2772;SDS011;1394;47.044;15.744;2023-03-11T00:08:29;25.10;;;1.90;;
2772;SDS011;1394;47.044;15.744;2023-03-11T00:10:57;24.60;;;1.60;;
2772;SDS011;1394;47.044;15.744;2023-03-11T00:13:26;25.53;;;2.20;;
2772;SDS011;1394;47.044;15.744;2023-03-11T00:15:54;25.70;;;2.20;;
2772;SDS011;1394;47.044;15.744;2023-03-11T00:18:22;24.90;;;2.00;;
2772;SDS011;1394;47.044;15.744;2023-03-11T00:20:52;24.63;;;1.90;;
2772;SDS011;1394;47.044;15.744;2023-03-11T00:23:21;24.70;;;1.77;;
2772;SDS011;1394;47.044;15.744;2023-03-11T00:25:48;24.27;;;1.50;;
2772;SDS011;1394;47.044;15.744;2023-03-11T00:28:16;24.80;;;1.77;;
2772;SDS011;1394;47.044;15.744;2023-03-11T00:30:44;26.07;;;2.30;;
2772;SDS011;1394;47.044;15.744;2023-03-11T00:33:13;24.63;;;1.70;;
2772;SDS011;1394;47.044;15.744;2023-03-11T00:35:42;25.27;;;2.20;;
2772;SDS011;1394;47.044;15.744;2023-03-11T00:38:10;25.90;;;2.33;;
2772;SDS011;1394;47.044;15.744;2023-03-11T00:40:40;24.80;;;1.63;;
2772;SDS011;1394;47.044;15.744;2023-03-11T00:43:08;24.70;;;1.90;;
2772;SDS011;1394;47.044;15.744;2023-03-11T00:45:35;24.97;;;2.10;;
2772;SDS011;1394;47.044;15.744;2023-03-11T00:48:02;25.47;;;2.00;;
2772;SDS011;1394;47.044;15.744;2023-03-11T00:50:31;25.10;;;2.37;;
2772;SDS011;1394;47.044;15.744;2023-03-11T00:52:58;25.40;;;2.00;;
2772;SDS011;1394;47.044;15.744;2023-03-11T00:55:26;25.53;;;2.80;;
2772;SDS011;1394;47.044;15.744;2023-03-11T00:57:56;25.63;;;2.40;;
2772;SDS011;1394;47.044;15.744;2023-03-11T01:00:25;26.00;;;3.20;;
2772;SDS011;1394;47.044;15.744;2023-03-11T01:02:52;26.50;;;3.70;;
2772;SDS011;1394;47.044;15.744;2023-03-11T01:05:21;26.20;;;3.10;;
2772;SDS011;1394;47.044;15.744;2023-03-11T01:07:48;26.40;;;2.90;;
2772;SDS011;1394;47.044;15.744;2023-03-11T01:10:16;26.40;;;3.13;;
2772;SDS011;1394;47.044;15.744;2023-03-11T01:12:43;25.50;;;2.97;;
2772;SDS011;1394;47.044;15.744;2023-03-11T01:15:15;25.30;;;2.50;;
2772;SDS011;1394;47.044;15.744;2023-03-11T01:17:43;25.40;;;2.70;;
2772;SDS011;1394;47.044;15.744;2023-03-11T01:20:11;25.33;;;2.50;;
2772;SDS011;1394;47.044;15.744;2023-03-11T01:22:38;25.10;;;2.60;;
2772;SDS011;1394;47.044;15.744;2023-03-11T01:25:05;25.13;;;2.60;;
2772;SDS011;1394;47.044;15.744;2023-03-11T01:27:34;25.90;;;2.70;;
2772;SDS011;1394;47.044;15.744;2023-03-11T01:30:01;25.13;;;2.10;;
2772;SDS011;1394;47.044;15.744;2023-03-11T01:32:30;25.63;;;2.00;;
2772;SDS011;1394;47.044;15.744;2023-03-11T01:34:57;25.03;;;2.00;;
2772;SDS011;1394;47.044;15.744;2023-03-11T01:37:24;24.90;;;2.10;;
2772;SDS011;1394;47.044;15.744;2023-03-11T01:39:52;25.83;;;2.40;;
2772;SDS011;1394;47.044;15.744;2023-03-11T01:42:20;24.70;;;1.60;;
2772;SDS011;1394;47.044;15.744;2023-03-11T01:44:48;24.73;;;2.00;;
2772;SDS011;1394;47.044;15.744;2023-03-11T01:47:33;24.80;;;2.00;;
2772;SDS011;1394;47.044;15.744;2023-03-11T01:50:00;24.57;;;1.90;;
2772;SDS011;1394;47.044;15.744;2023-03-11T01:52:28;24.90;;;2.10;;
2772;SDS011;1394;47.044;15.744;2023-03-11T01:54:56;25.10;;;2.10;;
2772;SDS011;1394;47.044;15.744;2023-03-11T01:57:23;25.70;;;2.60;;
2772;SDS011;1394;47.044;15.744;2023-03-11T01:59:51;25.57;;;2.60;;
2772;SDS011;1394;47.044;15.744;2023-03-11T02:02:22;25.93;;;2.70;;
2772;SDS011;1394;47.044;15.744;2023-03-11T02:04:55;25.50;;;2.73;;
2772;SDS011;1394;47.044;15.744;2023-03-11T02:07:22;25.63;;;2.60;;
2772;SDS011;1394;47.044;15.744;2023-03-11T02:09:50;24.87;;;2.00;;
2772;SDS011;1394;47.044;15.744;2023-03-11T02:12:17;24.73;;;1.90;;
2772;SDS011;1394;47.044;15.744;2023-03-11T02:14:45;24.87;;;2.00;;
2772;SDS011;1394;47.044;15.744;2023-03-11T02:17:14;25.30;;;2.63;;
2772;SDS011;1394;47.044;15.744;2023-03-11T02:19:47;24.97;;;2.33;;
2772;SDS011;1394;47.044;15.744;2023-03-11T02:22:19;25.73;;;2.77;;
2772;SDS011;1394;47.044;15.744;2023-03-11T02:24:49;25.00;;;2.10;;
2772;SDS011;1394;47.044;15.744;2023-03-11T02:27:21;25.50;;;1.80;;
2772;SDS011;1394;47.044;15.744;2023-03-11T02:29:51;24.80;;;2.00;;
2772;SDS011;1394;47.044;15.744;2023-03-11T02:32:20;24.60;;;1.73;;
2772;SDS011;1394;47.044;15.744;2023-03-11T02:34:48;26.20;;;2.73;;
2772;SDS011;1394;47.044;15.744;2023-03-11T02:37:15;25.57;;;2.30;;
2772;SDS011;1394;47.044;15.744;2023-03-11T02:39:43;26.00;;;2.43;;
2772;SDS011;1394;47.044;15.744;2023-03-11T02:42:12;25.27;;;2.07;;
2772;SDS011;1394;47.044;15.744;2023-03-11T02:44:55;24.87;;;1.83;;
2772;SDS011;1394;47.044;15.744;2023-03-11T02:47:24;26.80;;;2.33;;
2772;SDS011;1394;47.044;15.744;2023-03-11T02:49:51;25.10;;;2.23;;
2772;SDS011;1394;47.044;15.744;2023-03-11T02:52:20;24.10;;;1.23;;
2772;SDS011;1394;47.044;15.744;2023-03-11T02:54:47;24.33;;;1.60;;
2772;SDS011;1394;47.044;15.744;2023-03-11T02:57:15;24.60;;;1.70;;
2772;SDS011;1394;47.044;15.744;2023-03-11T02:59:42;25.37;;;2.30;;
2772;SDS011;1394;47.044;15.744;2023-03-11T03:02:10;25.67;;;2.80;;
2772;SDS011;1394;47.044;15.744;2023-03-11T03:04:37;24.60;;;1.50;;
2772;SDS011;1394;47.044;15.744;2023-03-11T03:07:05;25.40;;;1.80;;
2772;SDS011;1394;47.044;15.744;2023-03-11T03:09:32;24.13;;;1.37;;
2772;SDS011;1394;47.044;15.744;2023-03-11T03:12:00;24.87;;;1.10;;
2772;SDS011;1394;47.044;15.744;2023-03-11T03:14:27;24.43;;;1.40;;
2772;SDS011;1394;47.044;15.744;2023-03-11T03:16:54;24.37;;;1.40;;
2772;SDS011;1394;47.044;15.744;2023-03-11T03:19:23;24.00;;;1.40;;
2772;SDS011;1394;47.044;15.744;2023-03-11T03:21:50;23.80;;;1.20;;
2772;SDS011;1394;47.044;15.744;2023-03-11T03:24:17;25.10;;;1.50;;
2772;SDS011;1394;47.044;15.744;2023-03-11T03:26:45;24.00;;;1.10;;
2772;SDS011;1394;47.044;15.744;2023-03-11T03:29:12;24.00;;;0.93;;
2772;SDS011;1394;47.044;15.744;2023-03-11T03:31:42;24.10;;;1.10;;
2772;SDS011;1394;47.044;15.744;2023-03-11T03:34:09;24.37;;;1.40;;
2772;SDS011;1394;47.044;15.744;2023-03-11T03:36:37;24.93;;;1.30;;
2772;SDS011;1394;47.044;15.744;2023-03-11T03:39:04;24.07;;;1.30;;
2772;SDS011;1394;47.044;15.744;2023-03-11T03:41:32;24.40;;;1.50;;
2772;SDS011;1394;47.044;15.744;2023-03-11T03:43:59;24.47;;;1.50;;
2772;SDS011;1394;47.044;15.744;2023-03-11T03:46:26;24.13;;;1.40;;
2772;SDS011;1394;47.044;15.744;2023-03-11T03:48:53;25.60;;;1.97;;
2772;SDS011;1394;47.044;15.744;2023-03-11T03:51:20;25.40;;;1.97;;
2772;SDS011;1394;47.044;15.744;2023-03-11T03:53:50;25.03;;;1.60;;
2772;SDS011;1394;47.044;15.744;2023-03-11T03:56:18;25.30;;;1.73;;
2772;SDS011;1394;47.044;15.744;2023-03-11T03:58:45;24.47;;;1.60;;
2772;SDS011;1394;47.044;15.744;2023-03-11T04:01:12;24.60;;;1.33;;
2772;SDS011;1394;47.044;15.744;2023-03-11T04:03:39;24.37;;;1.37;;
2772;SDS011;1394;47.044;15.744;2023-03-11T04:06:07;24.57;;;1.40;;
2772;SDS011;1394;47.044;15.744;2023-03-11T04:08:35;24.00;;;1.03;;
2772;SDS011;1394;47.044;15.744;2023-03-11T04:11:04;24.47;;;1.20;;
2772;SDS011;1394;47.044;15.744;2023-03-11T04:13:31;24.33;;;1.40;;
2772;SDS011;1394;47.044;15.744;2023-03-11T04:15:58;23.97;;;0.90;;
2772;SDS011;1394;47.044;15.744;2023-03-11T04:18:27;23.70;;;0.67;;
2772;SDS011;1394;47.044;15.744;2023-03-11T04:20:58;23.57;;;0.50;;
2772;SDS011;1394;47.044;15.744;2023-03-11T04:23:27;23.80;;;0.80;;
2772;SDS011;1394;47.044;15.744;2023-03-11T04:25:54;23.80;;;0.70;;
2772;SDS011;1394;47.044;15.744;2023-03-11T04:28:23;23.70;;;0.60;;
2772;SDS011;1394;47.044;15.744;2023-03-11T04:30:50;23.70;;;0.50;;
2772;SDS011;1394;47.044;15.744;2023-03-11T04:33:17;23.60;;;0.50;;
2772;SDS011;1394;47.044;15.744;2023-03-11T04:35:45;23.80;;;0.60;;
2772;SDS011;1394;47.044;15.744;2023-03-11T04:38:12;23.70;;;0.50;;
2772;SDS011;1394;47.044;15.744;2023-03-11T04:40:39;23.80;;;0.53;;
2772;SDS011;1394;47.044;15.744;2023-03-11T04:43:07;23.90;;;0.40;;
2772;SDS011;1394;47.044;15.744;2023-03-11T04:45:38;23.90;;;0.50;;
2772;SDS011;1394;47.044;15.744;2023-03-11T04:48:05;23.80;;;0.50;;
2772;SDS011;1394;47.044;15.744;2023-03-11T04:50:33;23.70;;;0.50;;
2772;SDS011;1394;47.044;15.744;2023-03-11T04:53:00;24.47;;;0.40;;
2772;SDS011;1394;47.044;15.744;2023-03-11T04:55:27;23.90;;;0.60;;
2772;SDS011;1394;47.044;15.744;2023-03-11T04:57:55;23.80;;;0.60;;
2772;SDS011;1394;47.044;15.744;2023-03-11T05:00:22;23.60;;;0.50;;
2772;SDS011;1394;47.044;15.744;2023-03-11T05:02:51;23.87;;;0.50;;
2772;SDS011;1394;47.044;15.744;2023-03-11T05:05:18;23.67;;;0.60;;
2772;SDS011;1394;47.044;15.744;2023-03-11T05:07:46;23.80;;;0.50;;
2772;SDS011;1394;47.044;15.744;2023-03-11T05:10:13;23.90;;;0.60;;
2772;SDS011;1394;47.044;15.744;2023-03-11T05:12:46;23.80;;;0.50;;
2772;SDS011;1394;47.044;15.744;2023-03-11T05:15:14;23.80;;;0.53;;
2772;SDS011;1394;47.044;15.744;2023-03-11T05:17:42;23.90;;;0.50;;
2772;SDS011;1394;47.044;15.744;2023-03-11T05:20:11;23.70;;;0.50;;
2772;SDS011;1394;47.044;15.744;2023-03-11T05:22:38;23.70;;;0.50;;
2772;SDS011;1394;47.044;15.744;2023-03-11T05:25:07;25.47;;;0.60;;
2772;SDS011;1394;47.044;15.744;2023-03-11T05:27:37;23.70;;;0.50;;
2772;SDS011;1394;47.044;15.744;2023-03-11T05:30:05;24.23;;;0.50;;
2772;SDS011;1394;47.044;15.744;2023-03-11T05:32:33;24.33;;;0.60;;
2772;SDS011;1394;47.044;15.744;2023-03-11T05:35:00;23.80;;;0.60;;
2772;SDS011;1394;47.044;15.744;2023-03-11T05:37:30;23.90;;;0.70;;
2772;SDS011;1394;47.044;15.744;2023-03-11T05:39:57;23.70;;;0.50;;
2772;SDS011;1394;47.044;15.744;2023-03-11T05:42:25;23.80;;;0.60;;
2772;SDS011;1394;47.044;15.744;2023-03-11T05:44:52;23.70;;;0.50;;
2772;SDS011;1394;47.044;15.744;2023-03-11T05:47:19;23.80;;;0.50;;
2772;SDS011;1394;47.044;15.744;2023-03-11T05:49:48;25.10;;;0.60;;
2772;SDS011;1394;47.044;15.744;2023-03-11T05:52:17;23.80;;;0.60;;
2772;SDS011;1394;47.044;15.744;2023-03-11T05:54:47;23.87;;;0.60;;
2772;SDS011;1394;47.044;15.744;2023-03-11T05:57:15;23.80;;;0.50;;
2772;SDS011;1394;47.044;15.744;2023-03-11T05:59:43;24.57;;;0.50;;
2772;SDS011;1394;47.044;15.744;2023-03-11T06:02:11;24.00;;;0.60;;
2772;SDS011;1394;47.044;15.744;2023-03-11T06:04:39;23.90;;;0.53;;
2772;SDS011;1394;47.044;15.744;2023-03-11T06:07:07;23.87;;;0.60;;
2772;SDS011;1394;47.044;15.744;2023-03-11T06:09:36;23.90;;;0.50;;
2772;SDS011;1394;47.044;15.744;2023-03-11T06:12:05;23.87;;;0.73;;
2772;SDS011;1394;47.044;15.744;2023-03-11T06:14:32;23.90;;;0.60;;
2772;SDS011;1394;47.044;15.744;2023-03-11T06:16:59;23.80;;;0.53;;
2772;SDS011;1394;47.044;15.744;2023-03-11T06:19:32;23.87;;;0.50;;
2772;SDS011;1394;47.044;15.744;2023-03-11T06:21:59;23.80;;;0.67;;
2772;SDS011;1394;47.044;15.744;2023-03-11T06:24:28;24.00;;;0.70;;
2772;SDS011;1394;47.044;15.744;2023-03-11T06:26:57;24.43;;;1.20;;
2772;SDS011;1394;47.044;15.744;2023-03-11T06:29:26;23.90;;;0.70;;
2772;SDS011;1394;47.044;15.744;2023-03-11T06:31:54;24.07;;;0.50;;
2772;SDS011;1394;47.044;15.744;2023-03-11T06:34:24;23.80;;;0.53;;
2772;SDS011;1394;47.044;15.744;2023-03-11T06:36:52;23.80;;;0.70;;
2772;SDS011;1394;47.044;15.744;2023-03-11T06:39:24;24.87;;;1.30;;
2772;SDS011;1394;47.044;15.744;2023-03-11T06:41:51;25.30;;;1.40;;
2772;SDS011;1394;47.044;15.744;2023-03-11T06:44:18;24.33;;;0.90;;
2772;SDS011;1394;47.044;15.744;2023-03-11T06:46:49;25.50;;;0.77;;
2772;SDS011;1394;47.044;15.744;2023-03-11T06:49:18;24.20;;;0.90;;
2772;SDS011;1394;47.044;15.744;2023-03-11T06:51:45;24.00;;;0.70;;
2772;SDS011;1394;47.044;15.744;2023-03-11T06:54:15;23.97;;;0.60;;
2772;SDS011;1394;47.044;15.744;2023-03-11T06:56:42;24.10;;;0.80;;
2772;SDS011;1394;47.044;15.744;2023-03-11T06:59:09;25.17;;;1.10;;
2772;SDS011;1394;47.044;15.744;2023-03-11T07:01:36;24.10;;;0.70;;
2772;SDS011;1394;47.044;15.744;2023-03-11T07:04:06;23.80;;;0.50;;
2772;SDS011;1394;47.044;15.744;2023-03-11T07:06:33;24.30;;;0.70;;
2772;SDS011;1394;47.044;15.744;2023-03-11T07:09:00;25.50;;;0.80;;
2772;SDS011;1394;47.044;15.744;2023-03-11T07:11:27;23.90;;;0.67;;
2772;SDS011;1394;47.044;15.744;2023-03-11T07:13:54;24.47;;;1.10;;
2772;SDS011;1394;47.044;15.744;2023-03-11T07:16:23;23.90;;;0.63;;
2772;SDS011;1394;47.044;15.744;2023-03-11T07:18:51;23.70;;;0.40;;
2772;SDS011;1394;47.044;15.744;2023-03-11T07:21:20;24.00;;;0.70;;
2772;SDS011;1394;47.044;15.744;2023-03-11T07:23:50;23.90;;;0.50;;
2772;SDS011;1394;47.044;15.744;2023-03-11T07:26:20;24.37;;;0.70;;
2772;SDS011;1394;47.044;15.744;2023-03-11T07:28:47;23.87;;;0.60;;
2772;SDS011;1394;47.044;15.744;2023-03-11T07:31:15;23.80;;;0.67;;
2772;SDS011;1394;47.044;15.744;2023-03-11T07:33:43;24.37;;;0.73;;
2772;SDS011;1394;47.044;15.744;2023-03-11T07:36:11;23.80;;;0.60;;
2772;SDS011;1394;47.044;15.744;2023-03-11T07:38:40;24.90;;;0.70;;
2772;SDS011;1394;47.044;15.744;2023-03-11T07:41:08;23.90;;;0.70;;
2772;SDS011;1394;47.044;15.744;2023-03-11T07:43:36;24.20;;;0.70;;
2772;SDS011;1394;47.044;15.744;2023-03-11T07:46:04;24.10;;;0.60;;
2772;SDS011;1394;47.044;15.744;2023-03-11T07:48:32;23.90;;;0.50;;
2772;SDS011;1394;47.044;15.744;2023-03-11T07:51:00;23.80;;;0.60;;
2772;SDS011;1394;47.044;15.744;2023-03-11T07:53:29;23.83;;;0.53;;
2772;SDS011;1394;47.044;15.744;2023-03-11T07:55:58;24.47;;;0.80;;
2772;SDS011;1394;47.044;15.744;2023-03-11T07:58:25;23.87;;;0.50;;
2772;SDS011;1394;47.044;15.744;2023-03-11T08:00:53;24.97;;;1.30;;
2772;SDS011;1394;47.044;15.744;2023-03-11T08:03:23;24.13;;;0.97;;
2772;SDS011;1394;47.044;15.744;2023-03-11T08:05:50;24.40;;;1.20;;
2772;SDS011;1394;47.044;15.744;2023-03-11T08:08:19;24.43;;;1.33;;
2772;SDS011;1394;47.044;15.744;2023-03-11T08:10:46;23.87;;;0.67;;
2772;SDS011;1394;47.044;15.744;2023-03-11T08:13:15;23.80;;;0.50;;
2772;SDS011;1394;47.044;15.744;2023-03-11T08:15:42;23.70;;;0.70;;
2772;SDS011;1394;47.044;15.744;2023-03-11T08:18:09;23.50;;;0.60;;
2772;SDS011;1394;47.044;15.744;2023-03-11T08:20:38;24.27;;;0.70;;
2772;SDS011;1394;47.044;15.744;2023-03-11T08:23:05;24.87;;;0.53;;
2772;SDS011;1394;47.044;15.744;2023-03-11T08:25:32;23.90;;;0.60;;
2772;SDS011;1394;47.044;15.744;2023-03-11T08:27:59;24.10;;;0.63;;
2772;SDS011;1394;47.044;15.744;2023-03-11T08:30:28;24.00;;;0.53;;
2772;SDS011;1394;47.044;15.744;2023-03-11T08:32:55;24.00;;;0.60;;
2772;SDS011;1394;47.044;15.744;2023-03-11T08:35:22;23.90;;;0.60;;
2772;SDS011;1394;47.044;15.744;2023-03-11T08:37:50;24.63;;;0.70;;
2772;SDS011;1394;47.044;15.744;2023-03-11T08:40:22;24.00;;;0.60;;
2772;SDS011;1394;47.044;15.744;2023-03-11T08:42:49;23.80;;;0.50;;
2772;SDS011;1394;47.044;15.744;2023-03-11T08:45:16;23.90;;;0.50;;
2772;SDS011;1394;47.044;15.744;2023-03-11T08:50:29;24.00;;;0.60;;
2772;SDS011;1394;47.044;15.744;2023-03-11T08:52:57;24.20;;;0.60;;
2772;SDS011;1394;47.044;15.744;2023-03-11T08:55:29;24.17;;;0.73;;
2772;SDS011;1394;47.044;15.744;2023-03-11T08:57:56;24.67;;;0.60;;
2772;SDS011;1394;47.044;15.744;2023-03-11T09:00:23;24.20;;;0.60;;
2772;SDS011;1394;47.044;15.744;2023-03-11T09:02:50;24.60;;;0.57;;
2772;SDS011;1394;47.044;15.744;2023-03-11T09:05:31;24.10;;;0.60;;
2772;SDS011;1394;47.044;15.744;2023-03-11T09:07:59;24.10;;;0.60;;
2772;SDS011;1394;47.044;15.744;2023-03-11T09:10:26;24.00;;;0.60;;
2772;SDS011;1394;47.044;15.744;2023-03-11T09:12:54;23.93;;;0.60;;
2772;SDS011;1394;47.044;15.744;2023-03-11T09:15:21;24.83;;;0.60;;
2772;SDS011;1394;47.044;15.744;2023-03-11T09:17:50;24.63;;;0.60;;
2772;SDS011;1394;47.044;15.744;2023-03-11T09:20:20;24.00;;;0.57;;
2772;SDS011;1394;47.044;15.744;2023-03-11T09:22:51;24.00;;;0.60;;
2772;SDS011;1394;47.044;15.744;2023-03-11T09:25:20;24.43;;;0.70;;
2772;SDS011;1394;47.044;15.744;2023-03-11T09:27:50;24.10;;;0.50;;
2772;SDS011;1394;47.044;15.744;2023-03-11T09:30:17;23.90;;;0.60;;
2772;SDS011;1394;47.044;15.744;2023-03-11T09:32:44;24.87;;;0.60;;
2772;SDS011;1394;47.044;15.744;2023-03-11T09:35:11;24.00;;;0.60;;
2772;SDS011;1394;47.044;15.744;2023-03-11T09:37:40;24.10;;;0.57;;
2772;SDS011;1394;47.044;15.744;2023-03-11T09:40:12;24.00;;;0.40;;
2772;SDS011;1394;47.044;15.744;2023-03-11T09:42:42;24.20;;;0.40;;
2772;SDS011;1394;47.044;15.744;2023-03-11T09:45:14;24.50;;;0.60;;
2772;SDS011;1394;47.044;15.744;2023-03-11T09:47:44;23.90;;;0.50;;
2772;SDS011;1394;47.044;15.744;2023-03-11T09:50:16;24.30;;;0.60;;
2772;SDS011;1394;47.044;15.744;2023-03-11T09:52:45;24.17;;;0.50;;
2772;SDS011;1394;47.044;15.744;2023-03-11T09:55:26;24.57;;;0.60;;
2772;SDS011;1394;47.044;15.744;2023-03-11T09:57:55;24.10;;;0.60;;
2772;SDS011;1394;47.044;15.744;2023-03-11T10:00:24;24.00;;;0.53;;
2772;SDS011;1394;47.044;15.744;2023-03-11T10:02:51;24.10;;;0.50;;
2772;SDS011;1394;47.044;15.744;2023-03-11T10:05:22;24.10;;;0.50;;
2772;SDS011;1394;47.044;15.744;2023-03-11T10:07:52;24.10;;;0.60;;
2772;SDS011;1394;47.044;15.744;2023-03-11T10:10:20;24.40;;;0.60;;
2772;SDS011;1394;47.044;15.744;2023-03-11T10:12:50;24.37;;;0.80;;
2772;SDS011;1394;47.044;15.744;2023-03-11T10:15:22;24.20;;;0.60;;
2772;SDS011;1394;47.044;15.744;2023-03-11T10:20:39;24.20;;;0.50;;
2772;SDS011;1394;47.044;15.744;2023-03-11T10:23:11;24.00;;;0.53;;
2772;SDS011;1394;47.044;15.744;2023-03-11T10:25:46;24.00;;;0.50;;
2772;SDS011;1394;47.044;15.744;2023-03-11T10:28:17;24.37;;;0.60;;
2772;SDS011;1394;47.044;15.744;2023-03-11T10:30:46;25.40;;;1.20;;
2772;SDS011;1394;47.044;15.744;2023-03-11T10:33:16;24.40;;;0.70;;
2772;SDS011;1394;47.044;15.744;2023-03-11T10:35:47;24.87;;;1.00;;
2772;SDS011;1394;47.044;15.744;2023-03-11T10:38:17;24.70;;;0.73;;
2772;SDS011;1394;47.044;15.744;2023-03-11T10:40:46;24.37;;;0.67;;
2772;SDS011;1394;47.044;15.744;2023-03-11T10:43:15;24.40;;;0.70;;
2772;SDS011;1394;47.044;15.744;2023-03-11T10:45:45;24.10;;;0.50;;
2772;SDS011;1394;47.044;15.744;2023-03-11T10:48:15;24.10;;;0.60;;
2772;SDS011;1394;47.044;15.744;2023-03-11T10:50:46;24.57;;;0.90;;
2772;SDS011;1394;47.044;15.744;2023-03-11T10:53:16;24.80;;;1.10;;
2772;SDS011;1394;47.044;15.744;2023-03-11T10:55:46;25.00;;;0.77;;
2772;SDS011;1394;47.044;15.744;2023-03-11T10:58:14;24.20;;;0.60;;
2772;SDS011;1394;47.044;15.744;2023-03-11T11:00:42;24.50;;;0.70;;
2772;SDS011;1394;47.044;15.744;2023-03-11T11:03:15;24.67;;;0.73;;
2772;SDS011;1394;47.044;15.744;2023-03-11T11:05:46;24.57;;;0.70;;
2772;SDS011;1394;47.044;15.744;2023-03-11T11:08:22;24.40;;;0.60;;
2772;SDS011;1394;47.044;15.744;2023-03-11T11:10:51;24.30;;;0.70;;
2772;SDS011;1394;47.044;15.744;2023-03-11T11:13:20;24.77;;;0.73;;
2772;SDS011;1394;47.044;15.744;2023-03-11T11:15:51;24.50;;;0.50;;
2772;SDS011;1394;47.044;15.744;2023-03-11T11:18:23;24.70;;;0.70;;
2772;SDS011;1394;47.044;15.744;2023-03-11T11:20:54;24.97;;;0.90;;
2772;SDS011;1394;47.044;15.744;2023-03-11T11:23:25;24.70;;;0.73;;
2772;SDS011;1394;47.044;15.744;2023-03-11T11:25:57;24.57;;;0.60;;
2772;SDS011;1394;47.044;15.744;2023-03-11T11:28:28;25.47;;;0.90;;
2772;SDS011;1394;47.044;15.744;2023-03-11T11:30:56;25.03;;;0.87;;
2772;SDS011;1394;47.044;15.744;2023-03-11T11:33:27;24.90;;;0.73;;
2772;SDS011;1394;47.044;15.744;2023-03-11T11:35:56;25.33;;;1.00;;
2772;SDS011;1394;47.044;15.744;2023-03-11T11:38:26;25.40;;;0.80;;
2772;SDS011;1394;47.044;15.744;2023-03-11T11:40:57;24.80;;;0.80;;
2772;SDS011;1394;47.044;15.744;2023-03-11T11:43:31;24.70;;;0.70;;
2772;SDS011;1394;47.044;15.744;2023-03-11T11:46:03;24.70;;;0.60;;
2772;SDS011;1394;47.044;15.744;2023-03-11T11:48:34;24.50;;;0.60;;
2772;SDS011;1394;47.044;15.744;2023-03-11T11:51:09;24.87;;;0.80;;
2772;SDS011;1394;47.044;15.744;2023-03-11T11:53:43;26.10;;;0.80;;
2772;SDS011;1394;47.044;15.744;2023-03-11T11:56:14;25.20;;;0.90;;
2772;SDS011;1394;47.044;15.744;2023-03-11T11:58:43;24.90;;;0.80;;
2772;SDS011;1394;47.044;15.744;2023-03-11T12:01:14;24.70;;;0.80;;
2772;SDS011;1394;47.044;15.744;2023-03-11T12:06:30;24.97;;;0.80;;
2772;SDS011;1394;47.044;15.744;2023-03-11T12:09:08;24.70;;;0.80;;
2772;SDS011;1394;47.044;15.744;2023-03-11T12:11:40;25.10;;;0.80;;
2772;SDS011;1394;47.044;15.744;2023-03-11T12:14:11;24.80;;;0.60;;
2772;SDS011;1394;47.044;15.744;2023-03-11T12:16:41;26.13;;;0.60;;
2772;SDS011;1394;47.044;15.744;2023-03-11T12:19:13;25.10;;;0.70;;
2772;SDS011;1394;47.044;15.744;2023-03-11T12:21:51;24.50;;;0.57;;
2772;SDS011;1394;47.044;15.744;2023-03-11T12:24:29;24.70;;;0.67;;
2772;SDS011;1394;47.044;15.744;2023-03-11T12:27:00;24.77;;;0.70;;
2772;SDS011;1394;47.044;15.744;2023-03-11T12:29:30;24.80;;;0.70;;
2772;SDS011;1394;47.044;15.744;2023-03-11T12:32:00;24.80;;;0.70;;
2772;SDS011;1394;47.044;15.744;2023-03-11T12:34:28;24.90;;;0.80;;
2772;SDS011;1394;47.044;15.744;2023-03-11T12:36:58;24.70;;;0.60;;
2772;SDS011;1394;47.044;15.744;2023-03-11T12:39:28;25.00;;;0.70;;
2772;SDS011;1394;47.044;15.744;2023-03-11T12:42:13;24.90;;;0.70;;
2772;SDS011;1394;47.044;15.744;2023-03-11T12:44:43;24.53;;;0.60;;
2772;SDS011;1394;47.044;15.744;2023-03-11T12:47:22;24.80;;;0.63;;
2772;SDS011;1394;47.044;15.744;2023-03-11T12:49:50;24.63;;;0.60;;
2772;SDS011;1394;47.044;15.744;2023-03-11T12:52:21;24.57;;;0.70;;
2772;SDS011;1394;47.044;15.744;2023-03-11T12:57:34;24.60;;;0.70;;
2772;SDS011;1394;47.044;15.744;2023-03-11T13:05:40;24.73;;;0.70;;
2772;SDS011;1394;47.044;15.744;2023-03-11T13:08:14;24.97;;;0.80;;
2772;SDS011;1394;47.044;15.744;2023-03-11T13:10:42;24.97;;;0.73;;
2772;SDS011;1394;47.044;15.744;2023-03-11T13:13:29;25.03;;;0.70;;
2772;SDS011;1394;47.044;15.744;2023-03-11T13:16:33;24.80;;;0.60;;
2772;SDS011;1394;47.044;15.744;2023-03-11T13:18:54;24.50;;;0.70;;
2772;SDS011;1394;47.044;15.744;2023-03-11T13:21:43;24.50;;;0.60;;
2772;SDS011;1394;47.044;15.744;2023-03-11T13:27:00;24.90;;;0.70;;
2772;SDS011;1394;47.044;15.744;2023-03-11T13:29:35;24.70;;;0.60;;
2772;SDS011;1394;47.044;15.744;2023-03-11T13:32:23;25.30;;;0.80;;
2772;SDS011;1394;47.044;15.744;2023-03-11T13:35:09;24.90;;;0.60;;
2772;SDS011;1394;47.044;15.744;2023-03-11T13:37:38;24.90;;;0.80;;
2772;SDS011;1394;47.044;15.744;2023-03-11T13:40:16;24.80;;;0.60;;
2772;SDS011;1394;47.044;15.744;2023-03-11T13:42:49;24.97;;;0.60;;
2772;SDS011;1394;47.044;15.744;2023-03-11T13:45:25;24.90;;;0.60;;
2772;SDS011;1394;47.044;15.744;2023-03-11T13:47:55;24.60;;;0.53;;
2772;SDS011;1394;47.044;15.744;2023-03-11T13:50:25;24.90;;;0.60;;
2772;SDS011;1394;47.044;15.744;2023-03-11T13:52:54;25.07;;;0.63;;
2772;SDS011;1394;47.044;15.744;2023-03-11T13:55:25;24.80;;;0.63;;
2772;SDS011;1394;47.044;15.744;2023-03-11T13:57:58;24.80;;;0.60;;
2772;SDS011;1394;47.044;15.744;2023-03-11T14:00:26;24.80;;;0.60;;
2772;SDS011;1394;47.044;15.744;2023-03-11T14:02:55;24.90;;;0.60;;
2772;SDS011;1394;47.044;15.744;2023-03-11T14:05:24;24.80;;;0.70;;
2772;SDS011;1394;47.044;15.744;2023-03-11T14:07:54;24.60;;;0.60;;
2772;SDS011;1394;47.044;15.744;2023-03-11T14:10:24;24.80;;;0.63;;
2772;SDS011;1394;47.044;15.744;2023-03-11T14:13:05;24.90;;;0.70;;
2772;SDS011;1394;47.044;15.744;2023-03-11T14:15:38;24.90;;;0.70;;
2772;SDS011;1394;47.044;15.744;2023-03-11T14:18:24;24.73;;;0.70;;
2772;SDS011;1394;47.044;15.744;2023-03-11T14:20:54;24.83;;;0.80;;
2772;SDS011;1394;47.044;15.744;2023-03-11T14:23:28;24.70;;;0.53;;
2772;SDS011;1394;47.044;15.744;2023-03-11T14:26:01;24.80;;;0.60;;
2772;SDS011;1394;47.044;15.744;2023-03-11T14:28:34;24.93;;;0.70;;
2772;SDS011;1394;47.044;15.744;2023-03-11T14:31:04;24.80;;;0.90;;
2772;SDS011;1394;47.044;15.744;2023-03-11T14:33:32;24.80;;;0.80;;
2772;SDS011;1394;47.044;15.744;2023-03-11T14:36:01;24.70;;;0.60;;
2772;SDS011;1394;47.044;15.744;2023-03-11T14:38:29;24.77;;;0.80;;
2772;SDS011;1394;47.044;15.744;2023-03-11T14:41:00;25.13;;;0.70;;
2772;SDS011;1394;47.044;15.744;2023-03-11T14:43:31;24.97;;;0.70;;
2772;SDS011;1394;47.044;15.744;2023-03-11T14:45:59;24.80;;;0.90;;
2772;SDS011;1394;47.044;15.744;2023-03-11T14:48:29;24.77;;;0.70;;
2772;SDS011;1394;47.044;15.744;2023-03-11T14:50:59;24.70;;;0.70;;
2772;SDS011;1394;47.044;15.744;2023-03-11T14:53:29;24.80;;;0.70;;
2772;SDS011;1394;47.044;15.744;2023-03-11T14:55:59;24.73;;;0.70;;
2772;SDS011;1394;47.044;15.744;2023-03-11T14:58:32;24.97;;;0.70;;
2772;SDS011;1394;47.044;15.744;2023-03-11T15:01:01;24.90;;;0.90;;
2772;SDS011;1394;47.044;15.744;2023-03-11T15:03:30;24.60;;;0.80;;
2772;SDS011;1394;47.044;15.744;2023-03-11T15:05:58;24.67;;;0.57;;
2772;SDS011;1394;47.044;15.744;2023-03-11T15:08:29;24.97;;;0.70;;
2772;SDS011;1394;47.044;15.744;2023-03-11T15:13:46;25.80;;;0.70;;
2772;SDS011;1394;47.044;15.744;2023-03-11T15:16:28;24.77;;;0.70;;
2772;SDS011;1394;47.044;15.744;2023-03-11T15:18:58;25.43;;;0.70;;
2772;SDS011;1394;47.044;15.744;2023-03-11T15:21:25;24.30;;;0.60;;
2772;SDS011;1394;47.044;15.744;2023-03-11T15:23:58;24.30;;;0.50;;